Time;durP1;ratioP1;P1;durP2;ratioP2;P2;SDS_P1;SDS_P2;PMS_P1;PMS_P2;Temp;Humidity;BMP_temperature;BMP_pressure;BME280_temperature;BME280_humidity;BME280_pressure;Samples;Min_cycle;Max_cycle;Signal;HPM_P1;HPM_P2
2021/12/23 00:00:56;;;;;;;13.05;7.28;;;-0.70;99.90;;;;;;5055063;28;20119;-76
2021/12/23 00:03:22;;;;;;;15.35;7.13;;;-0.50;99.90;;;;;;5050063;28;20044;-76
2021/12/23 00:05:48;;;;;;;10.60;4.72;;;;;;;;;;5058147;28;20048;-77
2021/12/23 00:08:14;;;;;;;11.00;5.55;;;-0.40;99.90;;;;;;5042821;28;20063;-77
2021/12/23 00:10:41;;;;;;;18.95;8.77;;;;;;;;;;5056988;28;20041;-77
2021/12/23 00:13:07;;;;;;;12.68;6.40;;;-0.60;99.90;;;;;;5053385;28;20552;-77
2021/12/23 00:16:00;;;;;;;11.02;6.65;;;-0.10;99.90;;;;;;5059765;28;20074;-77
2021/12/23 00:23:49;;;;;;;13.52;8.60;;;;;;;;;;5058470;28;20441;-77
2021/12/23 00:26:15;;;;;;;19.63;8.80;;;;;;;;;;5054828;28;20040;-77
2021/12/23 00:28:41;;;;;;;19.25;7.57;;;;;;;;;;5057824;28;20177;-76
2021/12/23 00:31:08;;;;;;;17.20;8.77;;;;;;;;;;5049599;28;20045;-77
2021/12/23 00:33:36;;;;;;;19.70;9.70;;;-0.40;99.90;;;;;;5059129;28;20040;-76
2021/12/23 00:36:04;;;;;;;20.85;5.35;;;-0.40;99.90;;;;;;5060957;28;20032;-76
2021/12/23 00:38:39;;;;;;;6.95;4.28;;;;;;;;;;5036730;28;20061;-76
2021/12/23 00:41:05;;;;;;;;;;;-0.40;99.90;;;;;;5038935;28;20060;-76
2021/12/23 00:43:32;;;;;;;16.45;8.60;;;;;;;;;;5056492;28;20434;-76
2021/12/23 00:45:59;;;;;;;13.02;6.88;;;;;;;;;;5042151;28;20458;-76
2021/12/23 00:48:25;;;;;;;11.13;7.00;;;-0.50;99.90;;;;;;5033635;28;20419;-76
2021/12/23 00:50:52;;;;;;;14.73;7.20;;;;;;;;;;5058787;28;20400;-76
2021/12/23 00:53:20;;;;;;;20.15;11.52;;;;;;;;;;5037626;28;20427;-76
2021/12/23 00:55:50;;;;;;;12.68;6.32;;;-0.40;99.90;;;;;;5062949;28;20035;-76
2021/12/23 00:58:16;;;;;;;9.80;5.25;;;;;;;;;;5053806;28;20045;-76
2021/12/23 01:00:43;;;;;;;12.13;7.13;;;;;;;;;;5040950;28;20033;-76
2021/12/23 01:03:09;;;;;;;15.52;9.15;;;;;;;;;;5054276;28;20037;-76
2021/12/23 01:05:35;;;;;;;14.25;8.05;;;;;;;;;;5059375;28;20140;-76
2021/12/23 01:08:01;;;;;;;15.35;8.45;;;;;;;;;;5033849;28;20056;-76
2021/12/23 01:10:28;;;;;;;14.93;8.43;;;;;;;;;;5029839;28;20053;-76
2021/12/23 01:13:02;;;;;;;21.48;9.43;;;;;;;;;;5055373;28;20094;-76
2021/12/23 01:18:24;;;;;;;21.40;12.40;;;-0.20;99.90;;;;;;5055467;28;20098;-75
2021/12/23 01:20:52;;;;;;;19.90;11.25;;;-0.20;99.90;;;;;;5061605;28;20055;-75
2021/12/23 01:23:23;;;;;;;20.58;12.70;;;-0.10;99.90;;;;;;5040867;28;20048;-75
2021/12/23 01:25:51;;;;;;;17.40;11.10;;;-0.10;99.90;;;;;;5057243;28;20447;-75
2021/12/23 01:28:18;;;;;;;19.05;10.45;;;-0.10;99.90;;;;;;5057356;28;20084;-75
2021/12/23 01:30:44;;;;;;;19.45;9.73;;;-0.10;99.90;;;;;;5055698;28;20098;-75
2021/12/23 01:33:10;;;;;;;16.63;10.60;;;;;;;;;;5032847;28;20500;-75
2021/12/23 01:35:37;;;;;;;25.25;12.82;;;;;;;;;;5059038;28;20486;-75
2021/12/23 01:38:04;;;;;;;15.93;8.85;;;-0.10;99.90;;;;;;5059522;28;20036;-76
2021/12/23 01:40:31;;;;;;;17.33;9.27;;;;;;;;;;5057907;28;20040;-76
2021/12/23 01:42:57;;;;;;;16.80;9.48;;;-0.10;99.90;;;;;;5039439;28;20415;-76
2021/12/23 01:45:28;;;;;;;14.80;8.55;;;-0.20;99.90;;;;;;5055994;28;20044;-75
2021/12/23 01:47:54;;;;;;;12.20;6.95;;;;;;;;;;5056972;28;20037;-75
2021/12/23 01:50:25;;;;;;;16.15;8.20;;;-0.10;99.90;;;;;;5060529;28;20155;-76
2021/12/23 01:52:51;;;;;;;13.23;7.88;;;;;;;;;;5042787;28;20550;-76
2021/12/23 01:55:18;;;;;;;16.30;9.55;;;;;;;;;;5034513;28;20078;-76
2021/12/23 01:57:44;;;;;;;16.30;6.20;;;;;;;;;;5060592;28;20047;-76
2021/12/23 02:00:16;;;;;;;11.80;5.40;;;-0.30;99.90;;;;;;5058736;28;20043;-76
2021/12/23 02:02:43;;;;;;;18.25;10.05;;;-0.30;99.90;;;;;;5056937;28;20068;-76
2021/12/23 02:05:09;;;;;;;17.98;10.68;;;;;;;;;;5040897;28;20074;-76
2021/12/23 02:07:36;;;;;;;19.85;9.98;;;-0.20;99.90;;;;;;5058632;28;20123;-78
2021/12/23 02:10:04;;;;;;;17.88;10.05;;;;;;;;;;5042179;28;20036;-76
2021/12/23 02:12:30;;;;;;;16.67;10.82;;;-0.60;99.90;;;;;;5060592;28;20036;-76
2021/12/23 02:14:56;;;;;;;17.95;9.38;;;;;;;;;;5058057;28;20075;-76
2021/12/23 02:17:22;;;;;;;18.33;10.38;;;;;;;;;;5039324;28;20131;-76
2021/12/23 02:19:52;;;;;;;14.00;7.72;;;-0.50;99.90;;;;;;5051279;28;20407;-75
2021/12/23 02:22:18;;;;;;;22.60;11.48;;;;;;;;;;5036967;28;20071;-76
2021/12/23 02:24:44;;;;;;;19.90;11.13;;;;;;;;;;5059313;28;20037;-76
2021/12/23 02:27:11;;;;;;;17.50;10.85;;;;;;;;;;5055246;28;20033;-76
2021/12/23 02:29:37;;;;;;;20.42;12.57;;;;;;;;;;5054507;28;20511;-76
2021/12/23 02:32:04;;;;;;;19.70;10.75;;;;;;;;;;5040455;28;20036;-76
2021/12/23 02:34:30;;;;;;;18.20;10.98;;;;;;;;;;5059698;28;20043;-76
2021/12/23 02:36:57;;;;;;;16.85;8.63;;;;;;;;;;5041176;28;20167;-76
2021/12/23 02:39:25;;;;;;;21.65;12.00;;;-0.30;99.90;;;;;;5054049;28;20047;-76
2021/12/23 02:41:51;;;;;;;17.10;10.05;;;;;;;;;;5055205;28;20617;-77
2021/12/23 02:44:17;;;;;;;16.00;9.18;;;;;;;;;;5044036;28;20051;-76
2021/12/23 02:46:44;;;;;;;12.82;6.85;;;;;;;;;;5055150;28;20045;-76
2021/12/23 02:49:10;;;;;;;17.02;10.00;;;;;;;;;;5061300;28;20037;-76
2021/12/23 02:51:37;;;;;;;13.15;6.93;;;;;;;;;;5054522;28;20052;-75
2021/12/23 02:54:03;;;;;;;17.98;9.30;;;;;;;;;;5042780;28;20079;-75
2021/12/23 02:56:29;;;;;;;14.07;6.95;;;;;;;;;;5055543;28;20036;-76
2021/12/23 02:58:55;;;;;;;21.27;10.10;;;;;;;;;;5049810;28;20435;-76
2021/12/23 03:01:22;;;;;;;15.20;9.80;;;-0.30;99.90;;;;;;5044521;28;20080;-76
2021/12/23 03:03:49;;;;;;;23.13;11.10;;;;;;;;;;5047165;28;20051;-76
2021/12/23 03:06:18;;;;;;;18.75;9.70;;;;;;;;;;5035065;28;20496;-76
2021/12/23 03:08:56;;;;;;;19.00;10.70;;;-0.30;99.90;;;;;;5056596;28;20123;-76
2021/12/23 03:11:24;;;;;;;14.77;9.18;;;-0.60;99.90;;;;;;5036487;28;20049;-76
2021/12/23 03:13:51;;;;;;;17.60;9.13;;;;;;;;;;5061251;28;20037;-76
2021/12/23 03:16:25;;;;;;;20.15;11.10;;;-0.40;99.90;;;;;;5035151;28;20084;-76
2021/12/23 03:18:51;;;;;;;17.65;10.02;;;0.90;99.90;;;;;;5052556;28;20485;-76
2021/12/23 03:21:18;;;;;;;21.45;12.25;;;;;;;;;;5035303;28;20048;-76
2021/12/23 03:23:44;;;;;;;19.00;9.82;;;;;;;;;;5045655;28;20056;-76
2021/12/23 03:26:10;;;;;;;19.40;10.50;;;;;;;;;;5036607;28;20041;-76
2021/12/23 03:28:36;;;;;;;19.38;10.07;;;-0.30;99.90;;;;;;5063184;28;20554;-76
2021/12/23 03:31:03;;;;;;;19.15;12.48;;;;;;;;;;5053560;28;20173;-76
2021/12/23 03:33:29;;;;;;;18.48;11.07;;;;;;;;;;5055852;28;20059;-76
2021/12/23 03:35:55;;;;;;;20.85;12.43;;;-0.10;99.90;;;;;;5060136;28;20048;-76
2021/12/23 03:38:23;;;;;;;24.42;13.10;;;-0.30;99.90;;;;;;5061343;28;20499;-76
2021/12/23 03:40:49;;;;;;;18.38;10.18;;;;;;;;;;5061486;28;20041;-76
2021/12/23 03:43:16;;;;;;;24.08;12.70;;;;;;;;;;5040191;28;20049;-76
2021/12/23 03:45:44;;;;;;;20.08;11.23;;;-0.20;99.90;;;;;;5059638;28;20086;-76
2021/12/23 03:48:11;;;;;;;18.70;10.88;;;-0.20;99.90;;;;;;5039130;28;20040;-76
2021/12/23 03:50:37;;;;;;;22.30;12.55;;;;;;;;;;5041023;28;20040;-76
2021/12/23 03:53:03;;;;;;;20.67;13.60;;;-0.30;99.90;;;;;;5038166;28;20495;-76
2021/12/23 03:55:29;;;;;;;22.83;10.45;;;;;;;;;;5052150;28;20047;-76
2021/12/23 03:57:55;;;;;;;21.83;11.93;;;;;;;;;;5045291;28;20131;-76
2021/12/23 04:00:22;;;;;;;23.13;11.98;;;-0.20;99.90;;;;;;5037951;28;20458;-76
2021/12/23 04:02:49;;;;;;;21.70;12.00;;;;;;;;;;5063705;28;20040;-76
2021/12/23 04:05:16;;;;;;;20.90;11.35;;;;;;;;;;5044838;28;20135;-76
2021/12/23 04:07:43;;;;;;;22.70;12.88;;;;;;;;;;5036701;28;20094;-76
2021/12/23 04:10:11;;;;;;;21.98;12.68;;;;;;;;;;5044789;28;20494;-76
2021/12/23 04:12:37;;;;;;;24.55;13.50;;;;;;;;;;5043404;28;20032;-76
2021/12/23 04:15:03;;;;;;;17.55;11.98;;;;;;;;;;5050955;28;20043;-76
2021/12/23 04:17:30;;;;;;;19.63;13.25;;;;;;;;;;5052113;28;20720;-76
2021/12/23 04:20:09;;;;;;;21.85;12.55;;;;;;;;;;5059236;28;20090;-76
2021/12/23 04:22:36;;;;;;;22.42;15.20;;;;;;;;;;5054709;28;20477;-76
2021/12/23 04:25:02;;;;;;;23.15;13.70;;;;;;;;;;5060999;28;20041;-76
2021/12/23 04:27:28;;;;;;;20.02;12.43;;;;;;;;;;5060967;28;20040;-76
2021/12/23 04:29:55;;;;;;;19.83;13.75;;;;;;;;;;5053685;28;20063;-76
2021/12/23 04:32:21;;;;;;;20.80;13.07;;;;;;;;;;5055468;28;20415;-76
2021/12/23 04:34:47;;;;;;;20.42;13.32;;;;;;;;;;5059612;28;20045;-77
2021/12/23 04:37:13;;;;;;;27.00;15.95;;;;;;;;;;5061459;28;20443;-76
2021/12/23 04:39:40;;;;;;;22.20;12.27;;;;;;;;;;5053213;28;20049;-76
2021/12/23 04:42:06;;;;;;;21.52;12.70;;;0.70;99.90;;;;;;5050835;28;20157;-76
2021/12/23 04:44:32;;;;;;;18.77;11.40;;;;;;;;;;5041720;28;20090;-76
2021/12/23 04:46:58;;;;;;;24.80;13.85;;;;;;;;;;5053001;28;20033;-76
2021/12/23 04:49:25;;;;;;;20.75;13.27;;;;;;;;;;5042277;28;20084;-76
2021/12/23 04:51:51;;;;;;;21.10;12.88;;;;;;;;;;5053649;28;20080;-76
2021/12/23 04:54:17;;;;;;;24.42;15.55;;;;;;;;;;5044839;28;20474;-76
2021/12/23 04:56:43;;;;;;;26.23;16.85;;;;;;;;;;5041686;28;20028;-76
2021/12/23 04:59:09;;;;;;;26.98;14.13;;;;;;;;;;5058128;28;20124;-78
2021/12/23 05:01:35;;;;;;;20.30;13.45;;;;;;;;;;5041878;28;20044;-76
2021/12/23 05:04:02;;;;;;;20.67;12.27;;;;;;;;;;5041260;28;20499;-76
2021/12/23 05:06:28;;;;;;;21.85;12.70;;;;;;;;;;5053905;28;20061;-76
2021/12/23 05:08:54;;;;;;;21.83;11.90;;;;;;;;;;5062849;28;20048;-76
2021/12/23 05:11:20;;;;;;;24.80;13.93;;;;;;;;;;5038903;28;20462;-76
2021/12/23 05:13:49;;;;;;;18.73;10.40;;;;;;;;;;5041421;28;20040;-76
2021/12/23 05:16:17;;;;;;;20.52;13.23;;;0.00;99.90;;;;;;5053433;28;20110;-76
2021/12/23 05:18:44;;;;;;;18.40;11.32;;;0.00;99.90;;;;;;5057387;28;20561;-76
2021/12/23 05:21:10;;;;;;;22.52;14.38;;;;;;;;;;5054402;28;20407;-76
2021/12/23 05:23:36;;;;;;;20.05;11.23;;;;;;;;;;5053184;28;20047;-76
2021/12/23 05:26:06;;;;;;;22.95;13.35;;;;;;;;;;5044490;28;20040;-76
2021/12/23 05:28:35;;;;;;;29.00;16.25;;;0.10;99.90;;;;;;5028295;28;20076;-76
2021/12/23 05:31:02;;;;;;;22.55;13.45;;;;;;;;;;5056683;28;20036;-76
2021/12/23 05:33:28;;;;;;;21.38;15.02;;;;;;;;;;5033642;28;20040;-76
2021/12/23 05:35:55;;;;;;;23.50;14.18;;;;;;;;;;5061357;28;20109;-76
2021/12/23 05:38:22;;;;;;;24.50;15.35;;;;;;;;;;5057131;28;20044;-76
2021/12/23 05:40:48;;;;;;;21.67;12.52;;;;;;;;;;5054689;28;20124;-76
2021/12/23 05:43:14;;;;;;;23.42;15.10;;;;;;;;;;5061053;28;20044;-76
2021/12/23 05:45:40;;;;;;;21.98;13.18;;;;;;;;;;5061078;28;20384;-77
2021/12/23 05:48:07;;;;;;;26.25;14.60;;;;;;;;;;5041821;28;20041;-76
2021/12/23 05:50:33;;;;;;;24.17;15.15;;;;;;;;;;5040958;28;20072;-77
2021/12/23 05:52:59;;;;;;;28.77;16.63;;;;;;;;;;5035257;28;20305;-76
2021/12/23 05:55:25;;;;;;;25.25;13.27;;;;;;;;;;5046408;28;20116;-76
2021/12/23 05:57:52;;;;;;;23.52;14.45;;;;;;;;;;5038565;28;20041;-76
2021/12/23 06:00:25;;;;;;;21.45;15.98;;;0.10;99.90;;;;;;5050866;28;20508;-76
2021/12/23 06:02:51;;;;;;;27.17;14.70;;;;;;;;;;5044286;28;20086;-76
2021/12/23 06:05:17;;;;;;;20.23;12.27;;;;;;;;;;5041375;28;20469;-77
2021/12/23 06:07:44;;;;;;;25.67;15.38;;;;;;;;;;5050310;28;20056;-77
2021/12/23 06:10:10;;;;;;;22.70;14.07;;;;;;;;;;5049713;28;20045;-77
2021/12/23 06:12:37;;;;;;;25.95;15.40;;;;;;;;;;5042689;28;20086;-76
2021/12/23 06:15:04;;;;;;;23.23;14.48;;;;;;;;;;5044339;28;20086;-76
2021/12/23 06:17:30;;;;;;;26.17;15.02;;;0.10;99.90;;;;;;5029419;28;20072;-77
2021/12/23 06:19:56;;;;;;;26.77;13.88;;;;;;;;;;5032408;28;20064;-77
2021/12/23 06:22:22;;;;;;;20.52;12.75;;;;;;;;;;5035165;28;20049;-77
2021/12/23 06:24:49;;;;;;;22.17;12.73;;;;;;;;;;5057968;28;20050;-77
2021/12/23 06:27:16;;;;;;;22.48;13.82;;;;;;;;;;5051834;28;20129;-76
2021/12/23 06:29:42;;;;;;;23.83;14.93;;;;;;;;;;5051232;28;20052;-77
2021/12/23 06:32:08;;;;;;;22.73;12.20;;;;;;;;;;5059250;28;20127;-76
2021/12/23 06:34:34;;;;;;;22.13;11.10;;;;;;;;;;5061712;28;20066;-76
2021/12/23 06:37:01;;;;;;;19.88;11.20;;;0.30;99.90;;;;;;5039260;28;20036;-78
2021/12/23 06:39:28;;;;;;;19.00;12.55;;;;;;;;;;5054080;28;20064;-76
2021/12/23 06:41:54;;;;;;;24.67;12.77;;;;;;;;;;5058155;28;20075;-76
2021/12/23 06:44:20;;;;;;;25.90;14.35;;;;;;;;;;5053768;28;20522;-76
2021/12/23 06:46:47;;;;;;;26.70;15.13;;;;;;;;;;5041143;28;20048;-77
2021/12/23 06:49:13;;;;;;;19.00;10.90;;;;;;;;;;5048940;28;20064;-76
2021/12/23 06:51:39;;;;;;;18.25;10.20;;;;;;;;;;5043508;28;20404;-76
2021/12/23 06:54:06;;;;;;;20.48;11.65;;;;;;;;;;5037336;28;20037;-77
2021/12/23 06:56:32;;;;;;;22.80;14.10;;;;;;;;;;5050782;28;20120;-76
2021/12/23 06:58:58;;;;;;;25.13;15.25;;;;;;;;;;5054846;28;20037;-76
2021/12/23 07:01:24;;;;;;;22.70;13.57;;;0.20;99.90;;;;;;5055442;28;20044;-78
2021/12/23 07:04:06;;;;;;;24.17;12.18;;;;;;;;;;5056567;28;20049;-78
2021/12/23 07:06:34;;;;;;;24.73;13.73;;;;;;;;;;5054766;28;20127;-76
2021/12/23 07:09:03;;;;;;;22.55;12.45;;;0.30;99.90;;;;;;5046808;28;20530;-75
2021/12/23 07:11:30;;;;;;;26.10;15.32;;;;;;;;;;5055043;28;20037;-77
2021/12/23 07:13:56;;;;;;;29.88;16.65;;;;;;;;;;5036262;28;20044;-76
2021/12/23 07:16:22;;;;;;;24.42;13.30;;;;;;;;;;5052946;28;20040;-77
2021/12/23 07:18:48;;;;;;;24.52;13.80;;;;;;;;;;5057323;28;20063;-77
2021/12/23 07:21:14;;;;;;;25.73;12.95;;;;;;;;;;5061275;28;20071;-77
2021/12/23 07:23:40;;;;;;;24.50;13.75;;;;;;;;;;5063051;28;20071;-76
2021/12/23 07:26:06;;;;;;;22.77;14.98;;;;;;;;;;5035482;28;20071;-77
2021/12/23 07:28:32;;;;;;;28.65;14.80;;;0.30;99.90;;;;;;5048176;28;20119;-77
2021/12/23 07:30:58;;;;;;;18.77;10.77;;;;;;;;;;5044022;28;20043;-77
2021/12/23 07:33:24;;;;;;;24.45;15.05;;;;;;;;;;5063968;28;20060;-79
2021/12/23 07:35:50;;;;;;;26.90;13.68;;;;;;;;;;5057299;28;20040;-79
2021/12/23 07:38:17;;;;;;;24.88;14.63;;;;;;;;;;5051180;28;20076;-77
2021/12/23 07:40:43;;;;;;;20.70;12.38;;;;;;;;;;5054464;28;20564;-77
2021/12/23 07:43:20;;;;;;;28.40;16.30;;;;;;;;;;5059115;28;20048;-77
2021/12/23 07:45:47;;;;;;;21.40;13.23;;;;;;;;;;5056513;28;20449;-77
2021/12/23 07:48:13;;;;;;;26.83;14.25;;;;;;;;;;5061227;28;20063;-77
2021/12/23 07:50:42;;;;;;;26.95;15.32;;;0.40;99.90;;;;;;5036933;28;20040;-76
2021/12/23 07:53:08;;;;;;;26.90;14.63;;;;;;;;;;5059088;28;20040;-76
2021/12/23 07:55:38;;;;;;;30.13;16.35;;;;;;;;;;5050087;28;20040;-77
2021/12/23 07:58:04;;;;;;;24.10;15.00;;;;;;;;;;5044111;28;20043;-76
2021/12/23 08:00:30;;;;;;;32.55;15.52;;;0.40;99.90;;;;;;5050201;28;20032;-77
2021/12/23 08:02:57;;;;;;;30.35;15.85;;;;;;;;;;5040682;28;20067;-77
2021/12/23 08:05:23;;;;;;;31.15;15.00;;;;;;;;;;5058471;28;20663;-77
2021/12/23 08:07:49;;;;;;;29.50;18.02;;;0.30;99.90;;;;;;5035653;28;20072;-77
2021/12/23 08:10:16;;;;;;;30.88;17.08;;;;;;;;;;5055435;28;20052;-78
2021/12/23 08:12:42;;;;;;;32.03;16.52;;;;;;;;;;5051984;28;20044;-77
2021/12/23 08:15:08;;;;;;;30.33;19.27;;;0.30;99.90;;;;;;5033401;28;20158;-77
2021/12/23 08:17:34;;;;;;;32.53;22.65;;;;;;;;;;5059469;28;20537;-78
2021/12/23 08:20:00;;;;;;;31.35;18.40;;;0.50;99.90;;;;;;5056398;28;20041;-78
2021/12/23 08:22:26;;;;;;;34.65;18.95;;;;;;;;;;5059908;28;20142;-78
2021/12/23 08:24:52;;;;;;;37.20;20.08;;;;;;;;;;5056169;28;20669;-78
2021/12/23 08:27:21;;;;;;;33.05;19.42;;;;;;;;;;5051788;28;20045;-78
2021/12/23 08:29:47;;;;;;;37.47;21.52;;;;;;;;;;5041496;28;20051;-78
2021/12/23 08:32:13;;;;;;;35.33;18.67;;;;;;;;;;5029442;28;20049;-79
2021/12/23 08:34:39;;;;;;;38.17;21.73;;;;;;;;;;5055723;28;20072;-77
2021/12/23 08:37:07;;;;;;;41.45;22.55;;;;;;;;;;5055336;28;20062;-77
2021/12/23 08:39:34;;;;;;;34.83;17.15;;;;;;;;;;5055479;28;20629;-77
2021/12/23 08:42:00;;;;;;;38.75;21.33;;;;;;;;;;5040966;28;20066;-77
2021/12/23 08:44:29;;;;;;;41.70;22.05;;;0.40;99.90;;;;;;5053813;28;20072;-77
2021/12/23 08:46:55;;;;;;;40.47;21.73;;;;;;;;;;5040731;28;20040;-76
2021/12/23 08:49:21;;;;;;;41.10;21.23;;;0.70;99.90;;;;;;5053565;28;20126;-77
2021/12/23 08:51:47;;;;;;;47.70;25.73;;;0.30;99.90;;;;;;5053361;28;20114;-77
2021/12/23 08:54:13;;;;;;;37.33;20.55;;;;;;;;;;5046512;28;20052;-76
2021/12/23 08:56:40;;;;;;;48.95;24.80;;;;;;;;;;5051624;28;20062;-77
2021/12/23 08:59:06;;;;;;;37.22;20.58;;;;;;;;;;5038330;28;20044;-76
2021/12/23 09:01:32;;;;;;;34.58;18.48;;;;;;;;;;5049391;28;20036;-76
2021/12/23 09:03:58;;;;;;;45.95;22.63;;;;;;;;;;5052752;28;20052;-76
2021/12/23 09:06:24;;;;;;;48.72;26.33;;;0.40;99.90;;;;;;5054913;28;20407;-77
2021/12/23 09:08:51;;;;;;;48.45;24.52;;;;;;;;;;5049078;28;20040;-77
2021/12/23 09:11:17;;;;;;;51.90;23.70;;;0.70;99.90;;;;;;5054367;28;20261;-76
2021/12/23 09:13:43;;;;;;;47.72;24.70;;;;;;;;;;5042489;28;20131;-76
2021/12/23 09:16:09;;;;;;;43.30;18.63;;;;;;;;;;5058453;28;20037;-76
2021/12/23 09:18:35;;;;;;;50.38;26.88;;;;;;;;;;5043748;28;20044;-77
2021/12/23 09:21:02;;;;;;;45.08;21.75;;;;;;;;;;5053151;28;20040;-77
2021/12/23 09:23:28;;;;;;;42.72;21.30;;;0.60;99.90;;;;;;5050436;28;20374;-76
2021/12/23 09:25:55;;;;;;;48.85;25.05;;;;;;;;;;5059114;28;20124;-78
2021/12/23 09:28:34;;;;;;;44.38;20.70;;;;;;;;;;5037390;28;20041;-76
2021/12/23 09:33:46;;;;;;;53.72;25.42;;;;;;;;;;5050595;28;20052;-75
2021/12/23 09:36:13;;;;;;;57.30;25.48;;;0.50;99.90;;;;;;5042333;28;20572;-76
2021/12/23 09:38:39;;;;;;;49.33;25.50;;;;;;;;;;5055529;28;20128;-77
2021/12/23 09:41:16;;;;;;;52.05;27.05;;;0.50;99.90;;;;;;5040705;28;20036;-77
2021/12/23 09:43:43;;;;;;;51.60;26.52;;;;;;;;;;5059380;28;20634;-77
2021/12/23 09:46:11;;;;;;;52.75;26.15;;;0.50;99.90;;;;;;5062147;28;20570;-77
2021/12/23 09:48:42;;;;;;;53.67;29.20;;;0.50;99.90;;;;;;5054508;28;20048;-77
2021/12/23 09:51:09;;;;;;;51.13;25.08;;;0.60;99.90;;;;;;5060589;28;20048;-77
2021/12/23 09:53:35;;;;;;;51.50;25.27;;;;;;;;;;5040260;28;20048;-77
2021/12/23 09:56:02;;;;;;;57.33;29.13;;;0.50;99.90;;;;;;5062059;28;20094;-77
2021/12/23 09:58:30;;;;;;;58.55;26.50;;;0.60;99.90;;;;;;5033186;28;20033;-76
2021/12/23 10:00:56;;;;;;;60.20;27.55;;;;;;;;;;5055506;28;20134;-76
2021/12/23 10:03:23;;;;;;;53.88;25.33;;;;;;;;;;5052615;28;20550;-77
2021/12/23 10:05:50;;;;;;;49.55;25.73;;;;;;;;;;5050395;28;20044;-76
2021/12/23 10:08:16;;;;;;;64.97;30.25;;;1.30;99.90;;;;;;5056041;28;20422;-75
2021/12/23 10:11:13;;;;;;;62.70;31.98;;;0.50;99.90;;;;;;5032832;28;20691;-76
2021/12/23 10:31:24;;;;;;;70.38;40.33;;;0.30;99.90;;;;;;5039100;28;20080;-77
2021/12/23 10:33:42;;;;;;;70.18;39.22;;;;;;;;;;5037572;28;20356;-77
2021/12/23 10:38:48;;;;;;;62.80;33.78;;;0.40;99.90;;;;;;5049813;28;20472;-77
2021/12/23 10:41:20;;;;;;;62.20;33.30;;;0.30;99.90;;;;;;5057645;28;20044;-76
2021/12/23 10:43:46;;;;;;;70.55;38.72;;;;;;;;;;5038120;28;20103;-76
2021/12/23 10:46:17;;;;;;;67.43;36.67;;;0.30;99.90;;;;;;5041064;28;20052;-77
2021/12/23 10:49:01;;;;;;;62.30;34.95;;;0.30;99.90;;;;;;5058649;28;20130;-77
2021/12/23 10:51:28;;;;;;;63.55;30.95;;;;;;;;;;5070706;28;20114;-77
2021/12/23 10:54:21;;;;;;;59.90;30.15;;;0.30;99.90;;;;;;5056043;28;20036;-77
2021/12/23 10:59:48;;;;;;;56.83;26.60;;;;;;;;;;5026342;28;20047;-76
2021/12/23 11:02:29;;;;;;;63.35;31.35;;;0.40;99.90;;;;;;5053011;28;20053;-76
2021/12/23 11:05:19;;;;;;;64.85;28.48;;;1.00;99.90;;;;;;5037675;28;20063;-76
2021/12/23 11:41:30;;;;;;;51.42;27.33;;;;;;;;;;5052699;28;20044;-77
2021/12/23 11:43:59;;;;;;;49.00;25.60;;;0.90;99.90;;;;;;5052935;28;20123;-76
2021/12/23 11:46:35;;;;;;;49.35;23.17;;;1.10;99.90;;;;;;5054161;28;20136;-77
2021/12/23 11:49:06;;;;;;;49.15;24.40;;;;;;;;;;5056399;28;20538;-77
2021/12/23 11:51:42;;;;;;;53.05;25.85;;;;;;;;;;5051440;28;20044;-77
2021/12/23 11:54:11;;;;;;;46.90;23.40;;;1.10;99.90;;;;;;5062434;28;20098;-78
2021/12/23 11:56:53;;;;;;;53.65;28.10;;;1.10;99.90;;;;;;5051344;28;20041;-77
2021/12/23 11:59:20;;;;;;;49.55;22.85;;;1.20;99.90;;;;;;5058940;28;20119;-77
2021/12/23 12:01:46;;;;;;;53.60;25.90;;;;;;;;;;5041786;28;20419;-78
2021/12/23 12:04:25;;;;;;;46.75;23.23;;;1.20;99.90;;;;;;5056763;28;20537;-78
2021/12/23 12:06:52;;;;;;;42.75;22.10;;;;;;;;;;5059332;28;20040;-78
2021/12/23 12:09:30;;;;;;;48.65;23.13;;;1.00;99.90;;;;;;5040381;28;20060;-78
2021/12/23 12:11:59;;;;;;;59.90;30.65;;;1.10;99.90;;;;;;5044889;28;20643;-78
2021/12/23 12:14:40;;;;;;;48.75;25.92;;;1.20;99.90;;;;;;5056857;28;20044;-78
2021/12/23 12:17:33;;;;;;;47.60;24.08;;;1.20;99.90;;;;;;5059619;28;20028;-78
2021/12/23 12:19:59;;;;;;;54.33;26.23;;;;;;;;;;5058457;28;20164;-77
2021/12/23 12:22:53;;;;;;;58.22;28.27;;;1.10;99.90;;;;;;5054025;28;20045;-77
2021/12/23 12:25:25;;;;;;;53.60;28.08;;;;;;;;;;5056836;28;20566;-78
2021/12/23 12:27:52;;;;;;;53.47;26.67;;;;;;;;;;5054716;28;20571;-77
2021/12/23 12:30:21;;;;;;;61.30;29.60;;;;;;;;;;5060620;28;20059;-78
2021/12/23 12:32:48;;;;;;;41.35;17.58;;;;;;;;;;5058712;28;20614;-77
2021/12/23 12:35:15;;;;;;;50.20;22.33;;;1.30;99.90;;;;;;5047806;28;20503;-78
2021/12/23 12:37:44;;;;;;;63.17;27.60;;;1.30;99.90;;;;;;5055026;28;20041;-77
2021/12/23 12:40:11;;;;;;;52.95;23.65;;;;;;;;;;5054922;28;20040;-78
2021/12/23 12:42:42;;;;;;;61.92;25.73;;;;;;;;;;5046642;28;20254;-80
2021/12/23 12:45:13;;;;;;;57.15;28.05;;;1.30;99.90;;;;;;5052009;28;20044;-79
2021/12/23 12:47:54;;;;;;;59.47;32.30;;;1.40;99.90;;;;;;5032878;28;20132;-79
2021/12/23 12:50:25;;;;;;;65.55;27.77;;;1.20;99.90;;;;;;5054076;28;20535;-80
2021/12/23 12:52:54;;;;;;;38.25;19.88;;;;;;;;;;5061784;28;20048;-80
2021/12/23 12:55:23;;;;;;;50.78;26.30;;;1.20;99.90;;;;;;5044615;28;20044;-80
2021/12/23 12:58:00;;;;;;;46.22;23.23;;;1.60;99.90;;;;;;5043375;28;20335;-77
2021/12/23 13:00:39;;;;;;;48.47;19.25;;;1.40;99.90;;;;;;5056799;28;20040;-77
2021/12/23 13:03:14;;;;;;;55.63;27.92;;;1.50;99.90;;;;;;5060846;28;20044;-77
2021/12/23 13:05:40;;;;;;;;;;;1.50;99.90;;;;;;5053725;28;20044;-76
2021/12/23 13:08:20;;;;;;;58.30;27.05;;;1.50;99.90;;;;;;5045475;28;19999;-77
2021/12/23 13:10:50;;;;;;;53.03;25.45;;;;;;;;;;5056872;28;20424;-77
2021/12/23 13:13:31;;;;;;;55.35;26.30;;;1.50;99.90;;;;;;5061107;28;20545;-78
2021/12/23 13:16:00;;;;;;;55.35;26.35;;;1.50;99.90;;;;;;5041267;28;20178;-77
2021/12/23 13:18:26;;;;;;;61.08;29.20;;;;;;;;;;5053094;28;20044;-78
2021/12/23 13:21:05;;;;;;;57.30;25.10;;;1.50;99.90;;;;;;5059339;28;20124;-77
2021/12/23 13:23:36;;;;;;;43.25;21.75;;;1.60;99.90;;;;;;5060871;28;20041;-77
2021/12/23 13:26:02;;;;;;;58.42;23.83;;;;;;;;;;5044641;28;20073;-78
2021/12/23 13:28:41;;;;;;;43.88;20.83;;;1.50;99.90;;;;;;5060484;28;20047;-76
2021/12/23 13:31:17;;;;;;;61.83;29.20;;;1.70;99.90;;;;;;5056445;28;20044;-77
2021/12/23 13:33:47;;;;;;;47.78;22.83;;;1.70;99.90;;;;;;5058831;28;20051;-77
2021/12/23 13:36:28;;;;;;;45.10;21.77;;;1.60;99.90;;;;;;5061848;28;20093;-77
2021/12/23 13:39:04;;;;;;;55.42;25.58;;;1.60;99.90;;;;;;5058289;28;20114;-77
2021/12/23 13:41:52;;;;;;;48.92;22.48;;;1.60;99.90;;;;;;5059556;28;20048;-77
2021/12/23 13:44:32;;;;;;;51.42;23.73;;;1.70;99.90;;;;;;5040991;28;20079;-77
2021/12/23 13:47:05;;;;;;;54.35;25.80;;;1.60;99.90;;;;;;5057157;28;20496;-77
2021/12/23 13:49:33;;;;;;;51.65;24.75;;;;;;;;;;5041766;28;20447;-77
2021/12/23 13:51:59;;;;;;;59.05;28.17;;;;;;;;;;5058567;28;20044;-77
2021/12/23 13:54:32;;;;;;;45.72;20.70;;;1.60;99.90;;;;;;5035593;28;20041;-78
2021/12/23 13:56:58;;;;;;;59.35;25.33;;;;;;;;;;5056682;28;20032;-78
2021/12/23 13:59:30;;;;;;;48.78;24.08;;;1.60;99.90;;;;;;5051500;28;20040;-78
2021/12/23 14:02:16;;;;;;;60.10;27.98;;;1.70;99.90;;;;;;5053633;28;20049;-78
2021/12/23 14:04:44;;;;;;;56.75;26.77;;;1.70;99.90;;;;;;5034450;28;20044;-78
2021/12/23 14:07:18;;;;;;;54.50;25.80;;;1.70;99.90;;;;;;5056542;28;20056;-78
2021/12/23 14:09:53;;;;;;;57.30;26.38;;;1.50;99.90;;;;;;5056387;28;20052;-78
2021/12/23 14:12:44;;;;;;;61.67;27.98;;;1.80;99.90;;;;;;5033773;28;20060;-78
2021/12/23 14:15:35;;;;;;;56.17;25.80;;;1.80;99.90;;;;;;5058019;28;20073;-79
2021/12/23 14:18:25;;;;;;;56.80;24.83;;;1.80;99.90;;;;;;5040418;28;20098;-78
2021/12/23 14:23:44;;;;;;;65.03;31.85;;;1.80;99.90;;;;;;5049236;28;20570;-78
2021/12/23 14:26:31;;;;;;;46.25;20.17;;;1.70;99.90;;;;;;5037405;28;20048;-78
2021/12/23 14:29:07;;;;;;;62.65;30.42;;;1.80;99.90;;;;;;5040956;28;20048;-79
2021/12/23 14:31:41;;;;;;;56.72;25.67;;;1.80;99.90;;;;;;5060183;28;20123;-78
2021/12/23 14:34:22;;;;;;;55.75;23.17;;;1.80;99.90;;;;;;5040643;28;20036;-78
2021/12/23 14:36:50;;;;;;;38.65;18.70;;;1.80;99.90;;;;;;5054433;28;20045;-77
2021/12/23 14:39:27;;;;;;;62.40;26.15;;;1.80;99.90;;;;;;5053358;28;20503;-78
2021/12/23 14:42:01;;;;;;;46.78;21.40;;;1.90;99.90;;;;;;5058738;28;20051;-77
2021/12/23 14:44:28;;;;;;;55.33;23.83;;;;;;;;;;5057792;28;20511;-77
2021/12/23 14:47:15;;;;;;;49.63;25.60;;;2.00;99.90;;;;;;5058892;28;20044;-77
2021/12/23 14:52:40;;;;;;;64.20;28.48;;;2.00;99.90;;;;;;5056071;28;20044;-76
2021/12/23 14:55:19;;;;;;;59.17;25.75;;;2.00;99.90;;;;;;5040944;28;20041;-77
2021/12/23 14:57:50;;;;;;;83.60;39.38;;;2.10;99.90;;;;;;5037549;28;20058;-77